Time;durP1;ratioP1;P1;durP2;ratioP2;P2;SDS_P1;SDS_P2;PMS_P1;PMS_P2;Temp;Humidity;BMP_temperature;BMP_pressure;BME280_temperature;BME280_humidity;BME280_pressure;Samples;Min_cycle;Max_cycle;Signal;HPM_P1;HPM_P2
2021/12/25 07:41:15;;;;;;;10.63;6.73;;;;;;;;;;4793291;29;20213;-92
2021/12/25 07:45:16;;;;;;;;;;;;;;;;;;;;;
2021/12/25 07:54:57;;;;;;;;;;;;;;;;;;;;;
2021/12/25 09:08:45;;;;;;;6.83;5.20;;;;;;;;;;4783092;30;20217;-90
2021/12/25 09:11:48;;;;;;;7.87;4.60;;;;;;;;;;4797484;29;20229;-91
2021/12/25 09:14:55;;;;;;;5.83;4.80;;;;;;;;;;4762457;30;20194;-92
2021/12/25 09:17:59;;;;;;;7.13;5.00;;;;;;;;;;4782960;30;20214;-89
2021/12/25 09:21:04;;;;;;;8.17;5.13;;;;;;;;;;4773385;30;20229;-90
2021/12/25 09:24:08;;;;;;;23.63;18.90;;;;;;;;;;4774058;30;20203;-90
2021/12/25 09:27:12;;;;;;;11.87;10.30;;;;;;;;;;4775398;30;20221;-90
2021/12/25 09:30:16;;;;;;;10.63;8.43;;;;;;;;;;4783676;30;20230;-89
2021/12/25 09:33:21;;;;;;;8.70;6.07;;;;;;;;;;4788600;30;20217;-90
2021/12/25 09:36:26;;;;;;;9.63;8.70;;;;;;;;;;4774517;30;20197;-90
2021/12/25 09:39:31;;;;;;;6.60;5.90;;;;;;;;;;4781887;30;20209;-90
2021/12/25 09:42:38;;;;;;;7.57;6.33;;;;;;;;;;4763055;30;20198;-91
2021/12/25 09:45:42;;;;;;;6.97;5.53;;;;;;;;;;4777283;30;20611;-89
2021/12/25 09:48:47;;;;;;;9.40;6.60;;;;;;;;;;4766735;30;20197;-89
2021/12/25 09:51:51;;;;;;;9.37;6.03;;;;;;;;;;4781587;30;20585;-90
2021/12/25 09:54:56;;;;;;;6.37;5.07;;;;;;;;;;4792646;29;20202;-90
2021/12/25 09:58:01;;;;;;;7.37;4.83;;;;;;;;;;4782466;30;20198;-92
2021/12/25 10:01:05;;;;;;;8.23;4.83;;;;;;;;;;4784469;29;20221;-91
2021/12/25 10:04:29;;;;;;;6.37;4.13;;;;;;;;;;4790225;30;20197;-93
2021/12/25 10:07:33;;;;;;;6.03;4.40;;;;;;;;;;4771198;30;20230;-90
2021/12/25 10:10:52;;;;;;;4.63;3.80;;;;;;;;;;4771536;30;20226;-90
2021/12/25 10:13:56;;;;;;;6.13;4.30;;;;;;;;;;4774828;30;20206;-90
2021/12/25 10:17:35;;;;;;;11.17;5.67;;;;;;;;;;4782434;30;20647;-93
2021/12/25 10:20:41;;;;;;;17.30;7.03;;;;;;;;;;4774456;29;20229;-90
2021/12/25 10:23:45;;;;;;;22.33;10.70;;;;;;;;;;4797195;29;20547;-89
2021/12/25 10:26:49;;;;;;;12.73;7.63;;;;;;;;;;4776846;30;20215;-91
2021/12/25 10:30:03;;;;;;;9.07;6.83;;;;;;;;;;4782225;29;20276;-90
2021/12/25 10:33:44;;;;;;;11.47;6.63;;;;;;;;;;4778787;30;20566;-90
2021/12/25 10:36:49;;;;;;;8.87;6.13;;;;;;;;;;4789608;30;20201;-91
2021/12/25 10:39:53;;;;;;;14.40;6.73;;;;;;;;;;4769068;30;20209;-88
2021/12/25 10:43:00;;;;;;;9.83;5.67;;;;;;;;;;4779018;30;20535;-88
2021/12/25 10:46:04;;;;;;;8.57;5.80;;;;;;;;;;4768523;30;20221;-91
2021/12/25 10:49:15;;;;;;;6.97;5.20;;;;;;;;;;4789314;30;20523;-91
2021/12/25 10:52:32;;;;;;;7.87;5.00;;;;;;;;;;4785806;30;20202;-90
2021/12/25 10:55:37;;;;;;;6.70;5.43;;;;;;;;;;4761391;30;20593;-91
2021/12/25 10:58:43;;;;;;;6.10;5.00;;;;;;;;;;4761033;30;20183;-90
2021/12/25 11:01:50;;;;;;;5.33;4.20;;;;;;;;;;4780841;24;20238;-91
2021/12/25 11:04:54;;;;;;;7.57;5.17;;;;;;;;;;4771164;30;20655;-90
2021/12/25 11:08:03;;;;;;;6.50;5.60;;;;;;;;;;4781319;30;20182;-91
2021/12/25 11:11:19;;;;;;;7.60;5.07;;;;;;;;;;4789363;29;20230;-91
2021/12/25 11:14:23;;;;;;;6.30;5.17;;;;;;;;;;4791661;29;20206;-91
2021/12/25 11:17:32;;;;;;;8.93;6.30;;;;;;;;;;4773953;30;20179;-91
2021/12/25 11:20:39;;;;;;;8.37;5.53;;;;;;;;;;4762094;30;20238;-91
2021/12/25 11:23:45;;;;;;;6.10;5.10;;;;;;;;;;4771122;30;20198;-91
2021/12/25 11:26:55;;;;;;;8.33;5.90;;;;;;;;;;4770990;30;20207;-91
2021/12/25 11:30:02;;;;;;;6.23;5.63;;;;;;;;;;4781475;30;20199;-91
2021/12/25 11:33:07;;;;;;;6.53;5.10;;;;;;;;;;4771058;30;20210;-92
2021/12/25 11:36:11;;;;;;;6.73;4.83;;;;;;;;;;4770224;30;20186;-92
2021/12/25 11:39:20;;;;;;;6.93;4.53;;;;;;;;;;4771569;30;20331;-91
2021/12/25 11:42:26;;;;;;;5.53;3.83;;;;;;;;;;4763489;30;20230;-92
2021/12/25 11:45:36;;;;;;;4.83;4.20;;;;;;;;;;4763471;30;20194;-92
2021/12/25 11:48:42;;;;;;;6.30;4.27;;;;;;;;;;4743094;30;20183;-92
2021/12/25 11:51:47;;;;;;;7.60;3.90;;;;;;;;;;4766316;30;20242;-92
2021/12/25 11:55:12;;;;;;;5.43;4.17;;;;;;;;;;4780553;30;20299;-92
2021/12/25 11:58:40;;;;;;;5.03;3.80;;;;;;;;;;4780785;30;20190;-92
2021/12/25 12:01:52;;;;;;;6.30;4.43;;;;;;;;;;4769850;30;20244;-91
2021/12/25 12:05:27;;;;;;;6.23;4.40;;;;;;;;;;4780349;30;20190;-91
2021/12/25 12:08:55;;;;;;;5.23;3.60;;;;;;;;;;4752343;30;20191;-92
2021/12/25 12:12:26;;;;;;;6.70;4.17;;;;;;;;;;4760139;30;20246;-91
2021/12/25 12:15:51;;;;;;;5.70;4.00;;;;;;;;;;4770993;30;20185;-91
2021/12/25 12:19:40;;;;;;;7.50;4.57;;;;;;;;;;4786927;29;20202;-91
2021/12/25 12:22:54;;;;;;;5.83;4.30;;;;;;;;;;4769867;30;20214;-91
2021/12/25 12:26:08;;;;;;;6.27;4.60;;;;;;;;;;4780290;30;20194;-92
2021/12/25 12:29:15;;;;;;;5.87;4.00;;;;;;;;;;4790872;29;20202;-91
2021/12/25 12:32:19;;;;;;;7.30;4.70;;;;;;;;;;4782452;29;20230;-91
2021/12/25 12:35:35;;;;;;;5.70;3.97;;;;;;;;;;4773196;30;20198;-91
2021/12/25 12:38:43;;;;;;;6.30;4.20;;;;;;;;;;4773400;30;20199;-92
2021/12/25 12:41:54;;;;;;;6.63;4.13;;;;;;;;;;4771690;30;20226;-91
2021/12/25 12:45:10;;;;;;;5.20;4.00;;;;;;;;;;4772081;30;20202;-91
2021/12/25 12:48:18;;;;;;;6.93;4.40;;;;;;;;;;4775008;30;20222;-91
2021/12/25 12:51:23;;;;;;;7.00;4.50;;;;;;;;;;4765322;30;20222;-91
2021/12/25 12:54:42;;;;;;;6.53;4.30;;;;;;;;;;4765405;30;20577;-92
2021/12/25 12:57:47;;;;;;;6.07;4.07;;;;;;;;;;4764053;30;20191;-93
2021/12/25 13:01:01;;;;;;;6.93;4.20;;;;;;;;;;4773730;30;20234;-92
2021/12/25 13:04:06;;;;;;;5.10;3.97;;;;;;;;;;4763933;30;20222;-90
2021/12/25 13:07:17;;;;;;;6.23;4.47;;;;;;;;;;4773529;30;20221;-90
2021/12/25 13:10:31;;;;;;;6.27;4.27;;;;;;;;;;4754162;30;20198;-91
2021/12/25 13:13:47;;;;;;;6.13;4.50;;;;;;;;;;4772192;30;20202;-91
2021/12/25 13:16:51;;;;;;;6.53;4.60;;;;;;;;;;4768674;30;20187;-91
2021/12/25 13:19:55;;;;;;;8.23;5.23;;;;;;;;;;4766265;30;20186;-91
2021/12/25 13:23:01;;;;;;;7.03;4.30;;;;;;;;;;4763511;30;20639;-91
2021/12/25 13:26:09;;;;;;;6.13;4.63;;;;;;;;;;4783911;30;20190;-91
2021/12/25 13:29:19;;;;;;;6.70;4.10;;;;;;;;;;4773898;30;20532;-91
2021/12/25 13:32:30;;;;;;;6.57;3.93;;;;;;;;;;4774279;30;20225;-91
2021/12/25 13:35:34;;;;;;;5.00;4.20;;;;;;;;;;4763118;30;20191;-91
2021/12/25 13:38:57;;;;;;;7.83;4.17;;;;;;;;;;4763087;30;20182;-91
2021/12/25 13:42:08;;;;;;;7.97;4.87;;;;;;;;;;4783320;29;20234;-91
2021/12/25 13:45:13;;;;;;;8.70;5.30;;;;;;;;;;4783253;30;20194;-91
2021/12/25 13:48:17;;;;;;;11.53;8.50;;;;;;;;;;4772754;30;20662;-91
2021/12/25 13:51:21;;;;;;;8.00;6.47;;;;;;;;;;4762552;30;20679;-86
2021/12/25 13:54:26;;;;;;;9.60;8.63;;;;;;;;;;4765300;30;20201;-90
2021/12/25 13:57:31;;;;;;;8.67;6.53;;;;;;;;;;4772555;30;20182;-86
2021/12/25 14:00:44;;;;;;;8.33;5.90;;;;;;;;;;4761565;30;20237;-90
2021/12/25 14:03:48;;;;;;;8.83;7.23;;;;;;;;;;4772599;30;20198;-90
2021/12/25 14:06:52;;;;;;;8.37;6.27;;;;;;;;;;4761700;30;20229;-90
2021/12/25 14:10:08;;;;;;;8.10;6.10;;;;;;;;;;4771810;30;20210;-90
2021/12/25 14:13:16;;;;;;;7.53;4.50;;;;;;;;;;4778926;30;20207;-90
2021/12/25 14:16:20;;;;;;;9.70;7.03;;;;;;;;;;4771537;30;20199;-90
2021/12/25 14:19:26;;;;;;;21.73;10.43;;;;;;;;;;4761448;30;20206;-91
2021/12/25 14:22:31;;;;;;;20.67;11.20;;;;;;;;;;4782051;30;20643;-90
2021/12/25 14:25:39;;;;;;;18.70;12.07;;;;;;;;;;4771437;30;20194;-90
2021/12/25 14:28:43;;;;;;;24.00;15.30;;;;;;;;;;4790596;29;20222;-90
2021/12/25 14:31:48;;;;;;;17.27;12.37;;;;;;;;;;4771397;30;20608;-90
2021/12/25 14:34:54;;;;;;;20.10;12.97;;;;;;;;;;4771687;30;20202;-90
2021/12/25 14:38:00;;;;;;;21.97;15.17;;;;;;;;;;4771348;30;20217;-90
2021/12/25 14:41:04;;;;;;;17.10;12.83;;;;;;;;;;4757263;30;20238;-90
2021/12/25 14:44:21;;;;;;;17.40;12.57;;;;;;;;;;4761669;30;20198;-90
2021/12/25 14:47:25;;;;;;;16.23;12.03;;;;;;;;;;4771260;30;20528;-89
2021/12/25 14:50:32;;;;;;;16.20;11.23;;;;;;;;;;4763433;30;20231;-89
2021/12/25 14:54:03;;;;;;;17.37;9.77;;;;;;;;;;4790421;29;20654;-87
2021/12/25 14:57:07;;;;;;;7.50;5.97;;;;;;;;;;4765049;30;20298;-86
2021/12/25 15:00:23;;;;;;;13.23;5.67;;;;;;;;;;4791723;29;20182;-87
2021/12/25 15:04:01;;;;;;;12.57;6.03;;;;;;;;;;4791480;29;20203;-90
2021/12/25 15:07:09;;;;;;;15.97;7.73;;;;;;;;;;4764050;30;20223;-88
2021/12/25 15:11:19;;;;;;;10.97;6.40;;;;;;;;;;4766691;30;20202;-90
2021/12/25 15:14:28;;;;;;;8.00;5.77;;;;;;;;;;4726886;30;20204;-90
2021/12/25 15:17:42;;;;;;;8.10;5.80;;;;;;;;;;4724608;30;20684;-91
2021/12/25 15:21:02;;;;;;;11.17;6.43;;;;;;;;;;4764076;30;20230;-86
2021/12/25 15:24:13;;;;;;;7.43;5.27;;;;;;;;;;4763039;30;20195;-89
2021/12/25 15:27:32;;;;;;;6.27;4.50;;;;;;;;;;4772976;30;20227;-90
2021/12/25 15:30:37;;;;;;;6.83;5.00;;;;;;;;;;4770537;30;20567;-89
2021/12/25 15:34:08;;;;;;;5.40;4.30;;;;;;;;;;4773932;30;20206;-86
2021/12/25 15:37:19;;;;;;;6.37;4.40;;;;;;;;;;4776305;30;20190;-90
2021/12/25 15:40:28;;;;;;;6.27;4.53;;;;;;;;;;4771013;30;20202;-86
2021/12/25 15:43:33;;;;;;;5.30;4.27;;;;;;;;;;4772133;30;20190;-87
2021/12/25 15:46:36;;;;;;;8.47;5.83;;;;;;;;;;4761398;30;20210;-86
2021/12/25 15:49:40;;;;;;;6.00;4.63;;;;;;;;;;4771131;30;20206;-86
2021/12/25 15:52:46;;;;;;;5.37;4.40;;;;;;;;;;4770500;30;20197;-86
2021/12/25 15:56:17;;;;;;;5.50;4.40;;;;;;;;;;4753686;30;20199;-87
2021/12/25 15:59:48;;;;;;;7.10;4.37;;;;;;;;;;4752615;30;20218;-91
2021/12/25 16:02:52;;;;;;;10.53;4.73;;;;;;;;;;4752413;30;20187;-90
2021/12/25 16:05:57;;;;;;;6.50;4.77;;;;;;;;;;4761304;30;20532;-90
2021/12/25 16:09:04;;;;;;;5.47;4.37;;;;;;;;;;4779688;29;20586;-91
2021/12/25 16:12:09;;;;;;;6.87;5.10;;;;;;;;;;4769697;30;20229;-86
2021/12/25 16:15:13;;;;;;;7.03;5.20;;;;;;;;;;4771640;30;20194;-88
2021/12/25 16:18:18;;;;;;;7.30;4.87;;;;;;;;;;4781291;30;20193;-90
2021/12/25 16:21:23;;;;;;;5.27;3.93;;;;;;;;;;4780905;29;20229;-90
2021/12/25 16:24:27;;;;;;;5.57;3.57;;;;;;;;;;4784623;30;20222;-89
2021/12/25 16:27:32;;;;;;;3.73;3.20;;;;;;;;;;4763504;30;20226;-87
2021/12/25 16:30:47;;;;;;;5.63;4.23;;;;;;;;;;4763806;30;20225;-89
2021/12/25 16:33:52;;;;;;;5.50;3.07;;;;;;;;;;4764416;30;20198;-89
2021/12/25 16:36:56;;;;;;;4.37;3.40;;;;;;;;;;4757151;30;20187;-89
2021/12/25 16:40:00;;;;;;;3.40;3.10;;;;;;;;;;4768503;30;20555;-86
2021/12/25 16:47:14;;;;;;;3.23;2.93;;;;;;;;;;4773857;30;20184;-88
2021/12/25 16:50:19;;;;;;;4.90;3.80;;;;;;;;;;4757176;30;20195;-91
2021/12/25 16:53:39;;;;;;;6.00;4.53;;;;;;;;;;4757757;30;20203;-90
2021/12/25 16:56:48;;;;;;;6.70;4.30;;;;;;;;;;4767153;30;20585;-90
2021/12/25 16:59:52;;;;;;;5.73;4.23;;;;;;;;;;4758906;30;20540;-88
2021/12/25 17:02:59;;;;;;;7.13;5.10;;;;;;;;;;4757129;30;20581;-90
2021/12/25 17:06:05;;;;;;;6.80;5.17;;;;;;;;;;4766470;30;20553;-90
2021/12/25 17:09:09;;;;;;;6.87;4.47;;;;;;;;;;4755897;30;20613;-89
2021/12/25 17:12:14;;;;;;;6.40;5.23;;;;;;;;;;4773074;30;20622;-90
2021/12/25 17:15:20;;;;;;;7.17;5.17;;;;;;;;;;4764234;30;20635;-87
2021/12/25 17:18:25;;;;;;;9.10;6.40;;;;;;;;;;4774801;30;20653;-87
2021/12/25 17:21:30;;;;;;;7.70;4.90;;;;;;;;;;4776480;30;20635;-87
2021/12/25 17:24:34;;;;;;;7.73;5.10;;;;;;;;;;4774479;30;20609;-87
2021/12/25 17:27:40;;;;;;;11.70;7.60;;;;;;;;;;4773391;30;20627;-89
2021/12/25 17:30:49;;;;;;;7.83;5.87;;;;;;;;;;4746184;30;20661;-87
2021/12/25 17:33:53;;;;;;;8.47;6.13;;;;;;;;;;4755756;30;20557;-90
2021/12/25 17:36:57;;;;;;;11.30;6.63;;;;;;;;;;4766099;30;20589;-90
2021/12/25 17:40:05;;;;;;;8.70;6.00;;;;;;;;;;4784116;30;20607;-87
2021/12/25 17:43:09;;;;;;;8.93;6.47;;;;;;;;;;4778377;30;20910;-86
2021/12/25 17:46:13;;;;;;;7.93;5.40;;;;;;;;;;4767501;30;20556;-87
2021/12/25 17:49:18;;;;;;;16.90;11.80;;;;;;;;;;4753470;30;20615;-87
2021/12/25 17:52:22;;;;;;;12.17;8.67;;;;;;;;;;4763727;30;20651;-87
2021/12/25 17:56:20;;;;;;;10.03;7.37;;;;;;;;;;4774287;30;20564;-87
2021/12/25 17:59:26;;;;;;;13.93;9.90;;;;;;;;;;4773857;30;20561;-87
2021/12/25 18:02:31;;;;;;;17.47;10.73;;;;;;;;;;4775938;30;20640;-87
2021/12/25 18:05:35;;;;;;;11.53;7.00;;;;;;;;;;4763017;30;20600;-90
2021/12/25 18:08:41;;;;;;;15.27;8.23;;;;;;;;;;4762282;30;20670;-91
2021/12/25 18:11:46;;;;;;;13.97;9.40;;;;;;;;;;4792085;29;20651;-92
2021/12/25 18:14:50;;;;;;;11.00;7.13;;;;;;;;;;4763583;30;20553;-90
2021/12/25 18:17:55;;;;;;;9.90;6.60;;;;;;;;;;4760742;30;20605;-87
2021/12/25 18:21:04;;;;;;;12.13;7.83;;;;;;;;;;4754845;30;20637;-89
2021/12/25 18:24:08;;;;;;;10.73;6.67;;;;;;;;;;4780077;30;20612;-87
2021/12/25 18:27:13;;;;;;;10.47;6.80;;;;;;;;;;4783327;30;20608;-87
2021/12/25 18:30:22;;;;;;;13.07;7.90;;;;;;;;;;4745449;30;20891;-89
2021/12/25 18:33:28;;;;;;;8.23;6.10;;;;;;;;;;4769769;30;20625;-89
2021/12/25 18:36:32;;;;;;;12.80;8.23;;;;;;;;;;4767398;30;20632;-88
2021/12/25 18:39:36;;;;;;;17.53;7.73;;;;;;;;;;4761950;30;20568;-90
2021/12/25 18:42:41;;;;;;;16.10;9.03;;;;;;;;;;4743540;30;20624;-88
2021/12/25 18:45:46;;;;;;;17.00;11.03;;;;;;;;;;4744413;30;20620;-91
2021/12/25 18:48:53;;;;;;;16.47;8.67;;;;;;;;;;4771899;30;20617;-89
2021/12/25 18:51:57;;;;;;;11.33;7.73;;;;;;;;;;4764276;30;20668;-90
2021/12/25 18:55:01;;;;;;;12.73;7.63;;;;;;;;;;4773168;30;20619;-91
2021/12/25 18:58:07;;;;;;;14.17;7.77;;;;;;;;;;4760821;30;20572;-90
2021/12/25 19:01:11;;;;;;;15.63;8.07;;;;;;;;;;4771412;30;20647;-88
2021/12/25 19:04:15;;;;;;;15.37;8.77;;;;;;;;;;4771391;30;20572;-88
2021/12/25 19:07:20;;;;;;;15.13;8.87;;;;;;;;;;4771441;30;20945;-91
2021/12/25 19:10:24;;;;;;;11.10;8.03;;;;;;;;;;4760808;30;20564;-89
2021/12/25 19:13:31;;;;;;;15.03;9.23;;;;;;;;;;4761165;30;20565;-90
2021/12/25 19:16:36;;;;;;;12.97;8.37;;;;;;;;;;4773619;30;20620;-90
2021/12/25 19:19:40;;;;;;;15.40;8.50;;;;;;;;;;4743062;30;20562;-91
2021/12/25 19:22:45;;;;;;;14.47;8.63;;;;;;;;;;4752899;30;20566;-92
2021/12/25 19:25:49;;;;;;;16.47;9.97;;;;;;;;;;4743213;30;21156;-91
2021/12/25 19:28:53;;;;;;;19.20;11.13;;;;;;;;;;4742667;30;20672;-90
2021/12/25 19:31:57;;;;;;;11.97;8.93;;;;;;;;;;4752473;30;20644;-90
2021/12/25 19:35:02;;;;;;;12.23;8.30;;;;;;;;;;4752907;30;20554;-90
2021/12/25 19:38:10;;;;;;;16.60;9.93;;;;;;;;;;4752545;30;20569;-88
2021/12/25 19:41:14;;;;;;;15.03;8.90;;;;;;;;;;4762685;30;20633;-88
2021/12/25 19:44:18;;;;;;;13.90;8.17;;;;;;;;;;4773144;30;21086;-91
2021/12/25 19:47:23;;;;;;;13.63;8.60;;;;;;;;;;4758154;30;20558;-87
2021/12/25 19:50:30;;;;;;;13.57;8.90;;;;;;;;;;4753476;30;20672;-90
2021/12/25 19:53:34;;;;;;;11.23;8.33;;;;;;;;;;4764570;30;20609;-90
2021/12/25 19:56:38;;;;;;;14.57;9.30;;;;;;;;;;4762148;30;20911;-89
2021/12/25 19:59:43;;;;;;;16.27;9.93;;;;;;;;;;4765088;30;20549;-88
2021/12/25 20:02:47;;;;;;;13.80;9.17;;;;;;;;;;4755331;30;20903;-89
2021/12/25 20:05:52;;;;;;;15.03;10.13;;;;;;;;;;4780222;30;20974;-90
2021/12/25 20:09:00;;;;;;;14.87;9.90;;;;;;;;;;4760449;30;20608;-88
2021/12/25 20:12:05;;;;;;;14.60;9.60;;;;;;;;;;4760670;30;20648;-88
2021/12/25 20:15:10;;;;;;;19.57;10.17;;;;;;;;;;4760777;30;21096;-90
2021/12/25 20:18:15;;;;;;;17.07;11.30;;;;;;;;;;4751590;30;20560;-83
2021/12/25 20:21:21;;;;;;;19.80;12.63;;;;;;;;;;4759649;30;20635;-90
2021/12/25 20:24:25;;;;;;;15.53;10.10;;;;;;;;;;4760111;30;20561;-89
2021/12/25 20:27:30;;;;;;;14.03;9.70;;;;;;;;;;4769741;30;20609;-90
2021/12/25 20:30:35;;;;;;;14.50;10.20;;;;;;;;;;4760082;30;20672;-90
2021/12/25 20:33:41;;;;;;;16.50;10.27;;;;;;;;;;4759547;30;20914;-90
2021/12/25 20:36:46;;;;;;;13.93;9.20;;;;;;;;;;4780784;30;20553;-88
2021/12/25 20:39:50;;;;;;;18.20;10.43;;;;;;;;;;4771486;30;20552;-88
2021/12/25 20:42:57;;;;;;;18.37;11.10;;;;;;;;;;4781951;30;20569;-90
2021/12/25 20:46:03;;;;;;;16.47;10.50;;;;;;;;;;4772377;30;20609;-91
2021/12/25 20:49:08;;;;;;;16.43;10.67;;;;;;;;;;4762852;30;21169;-89
2021/12/25 20:52:12;;;;;;;16.63;10.47;;;;;;;;;;4753072;30;20644;-87
2021/12/25 20:55:16;;;;;;;14.47;10.30;;;;;;;;;;4753352;30;20554;-89
2021/12/25 20:58:22;;;;;;;18.73;11.40;;;;;;;;;;4763436;30;20553;-87
2021/12/25 21:01:26;;;;;;;21.80;11.73;;;;;;;;;;4754617;30;20645;-87
2021/12/25 21:04:32;;;;;;;18.37;10.87;;;;;;;;;;4753225;30;20569;-88
2021/12/25 21:07:36;;;;;;;19.90;11.67;;;;;;;;;;4753252;30;20907;-90
2021/12/25 21:10:40;;;;;;;18.00;11.90;;;;;;;;;;4766746;30;20680;-91
2021/12/25 21:13:45;;;;;;;22.60;11.97;;;;;;;;;;4775935;30;20561;-91
2021/12/25 21:16:49;;;;;;;17.03;11.70;;;;;;;;;;4756372;30;21125;-88
2021/12/25 21:19:55;;;;;;;17.80;10.43;;;;;;;;;;4767746;30;20557;-87
2021/12/25 21:22:59;;;;;;;18.57;13.03;;;;;;;;;;4755395;30;20557;-90
2021/12/25 21:26:05;;;;;;;15.20;10.80;;;;;;;;;;4745857;30;20990;-89
2021/12/25 21:29:09;;;;;;;18.83;10.67;;;;;;;;;;4746046;30;20612;-88
2021/12/25 21:32:14;;;;;;;16.97;11.10;;;;;;;;;;4745590;30;20633;-90
2021/12/25 21:35:19;;;;;;;17.80;10.57;;;;;;;;;;4765608;30;20557;-90
2021/12/25 21:38:27;;;;;;;16.40;11.37;;;;;;;;;;4754765;30;20621;-90
2021/12/25 21:41:31;;;;;;;19.53;11.07;;;;;;;;;;4757989;30;20641;-88
2021/12/25 21:44:36;;;;;;;19.03;11.00;;;;;;;;;;4747277;30;20625;-90
2021/12/25 21:47:40;;;;;;;18.83;12.00;;;;;;;;;;4767511;30;20561;-87
2021/12/25 21:50:45;;;;;;;17.80;10.60;;;;;;;;;;4755675;30;20676;-88
2021/12/25 21:53:49;;;;;;;17.60;11.03;;;;;;;;;;4765253;30;20549;-88
2021/12/25 21:56:53;;;;;;;18.60;10.93;;;;;;;;;;4781072;30;20600;-90
2021/12/25 21:59:57;;;;;;;17.13;10.17;;;;;;;;;;4762245;30;20552;-89
2021/12/25 22:03:02;;;;;;;18.70;11.80;;;;;;;;;;4782268;30;20545;-90
2021/12/25 22:06:07;;;;;;;16.73;10.27;;;;;;;;;;4754920;30;20562;-88
2021/12/25 22:09:12;;;;;;;16.83;10.30;;;;;;;;;;4757999;30;20640;-90
2021/12/25 22:12:17;;;;;;;16.83;10.23;;;;;;;;;;4764379;30;20632;-88
2021/12/25 22:15:24;;;;;;;15.93;10.43;;;;;;;;;;4751354;30;20577;-90
2021/12/25 22:18:28;;;;;;;17.77;11.33;;;;;;;;;;4782672;30;20572;-87
2021/12/25 22:21:32;;;;;;;16.83;10.50;;;;;;;;;;4762421;30;20620;-89
2021/12/25 22:24:36;;;;;;;16.37;10.43;;;;;;;;;;4762317;30;20553;-90
2021/12/25 22:27:42;;;;;;;17.87;11.10;;;;;;;;;;4773191;30;20604;-87
2021/12/25 22:30:46;;;;;;;15.83;10.27;;;;;;;;;;4762296;30;20671;-90
2021/12/25 22:33:50;;;;;;;16.10;10.67;;;;;;;;;;4771647;30;20549;-88
2021/12/25 22:36:54;;;;;;;16.97;10.40;;;;;;;;;;4762426;30;21123;-91
2021/12/25 22:39:59;;;;;;;16.37;9.63;;;;;;;;;;4771262;30;20628;-88
2021/12/25 22:43:04;;;;;;;15.77;10.57;;;;;;;;;;4752603;30;20556;-88
2021/12/25 22:46:08;;;;;;;14.33;9.63;;;;;;;;;;4763196;30;20569;-87
2021/12/25 22:49:12;;;;;;;16.70;10.57;;;;;;;;;;4761764;30;20564;-87
2021/12/25 22:52:19;;;;;;;15.03;10.10;;;;;;;;;;4761015;30;20700;-90
2021/12/25 22:55:23;;;;;;;14.53;9.80;;;;;;;;;;4761207;30;20553;-91
2021/12/25 22:58:28;;;;;;;14.87;9.53;;;;;;;;;;4761126;30;20564;-90
2021/12/25 23:01:32;;;;;;;19.13;10.53;;;;;;;;;;4772129;30;20652;-89
2021/12/25 23:04:38;;;;;;;16.10;10.20;;;;;;;;;;4760966;30;20612;-91
2021/12/25 23:07:42;;;;;;;19.33;11.33;;;;;;;;;;4760557;30;20635;-90
2021/12/25 23:10:48;;;;;;;18.60;10.57;;;;;;;;;;4770596;30;20672;-90
2021/12/25 23:13:56;;;;;;;18.73;11.57;;;;;;;;;;4770838;30;20545;-90
2021/12/25 23:17:00;;;;;;;16.90;10.23;;;;;;;;;;4785733;30;20557;-88
2021/12/25 23:20:58;;;;;;;16.43;9.93;;;;;;;;;;4762925;30;20608;-87
2021/12/25 23:24:04;;;;;;;16.90;10.23;;;;;;;;;;4763386;30;20561;-87
2021/12/25 23:27:08;;;;;;;18.60;10.40;;;;;;;;;;4762636;30;20616;-88
2021/12/25 23:30:14;;;;;;;19.00;11.10;;;;;;;;;;4752482;30;20604;-88
2021/12/25 23:33:19;;;;;;;18.40;10.57;;;;;;;;;;4763091;30;20553;-88
2021/12/25 23:36:23;;;;;;;18.63;10.73;;;;;;;;;;4762283;30;20553;-88
2021/12/25 23:39:28;;;;;;;17.90;10.50;;;;;;;;;;4761659;30;20923;-88
2021/12/25 23:42:37;;;;;;;16.73;10.37;;;;;;;;;;4761491;30;20981;-87
2021/12/25 23:45:42;;;;;;;17.57;10.67;;;;;;;;;;4763390;30;20556;-87
2021/12/25 23:48:47;;;;;;;15.90;9.93;;;;;;;;;;4763391;30;20553;-87
2021/12/25 23:51:51;;;;;;;17.00;10.50;;;;;;;;;;4762340;30;20743;-88
2021/12/25 23:54:55;;;;;;;19.03;10.37;;;;;;;;;;4762591;30;20557;-88
2021/12/25 23:58:00;;;;;;;19.00;11.63;;;;;;;;;;4752138;30;21112;-87
